Time;durP1;ratioP1;P1;durP2;ratioP2;P2;SDS_P1;SDS_P2;PMS_P1;PMS_P2;Temp;Humidity;BMP_temperature;BMP_pressure;BME280_temperature;BME280_humidity;BME280_pressure;Samples;Min_cycle;Max_cycle;Signal;HPM_P1;HPM_P2
2021/09/13 00:00:10;;;;;;;34.77;16.93;;;;;;;12.51;100.00;-19492.31;5016128;28;20033;-66
2021/09/13 00:02:36;;;;;;;37.07;15.90;;;;;;;12.44;100.00;-19490.47;5017524;28;20050;-67
2021/09/13 00:05:02;;;;;;;36.07;14.57;;;;;;;12.48;100.00;-19491.53;5017664;28;20048;-67
2021/09/13 00:07:27;;;;;;;34.73;14.37;;;;;;;12.42;100.00;-19489.94;5018458;28;20349;-67
2021/09/13 00:09:53;;;;;;;33.80;13.57;;;;;;;12.48;100.00;-19491.53;5017817;28;20088;-66
2021/09/13 00:12:19;;;;;;;30.17;12.70;;;;;;;12.43;100.00;-19490.22;5018373;28;20025;-67
2021/09/13 00:14:44;;;;;;;29.67;12.40;;;;;;;12.46;100.00;-19491.00;5017645;28;20845;-66
2021/09/13 00:17:10;;;;;;;24.70;11.17;;;;;;;12.53;100.00;-19492.84;5018536;28;20478;-66
2021/09/13 00:19:37;;;;;;;24.63;10.53;;;;;;;12.52;100.00;-19492.56;5017939;28;20025;-67
2021/09/13 00:22:03;;;;;;;25.40;11.17;;;;;;;12.52;100.00;-19492.72;5018140;28;20347;-66
2021/09/13 00:24:28;;;;;;;23.73;10.03;;;;;;;12.53;100.00;-19492.84;5017254;28;20124;-66
2021/09/13 00:26:54;;;;;;;27.77;11.40;;;;;;;12.52;100.00;-19492.56;5018385;28;20029;-66
2021/09/13 00:29:20;;;;;;;27.07;10.30;;;;;;;12.50;100.00;-19492.19;5017703;28;20026;-66
2021/09/13 00:31:46;;;;;;;23.67;10.23;;;;;;;12.49;100.00;-19491.91;5018446;28;20033;-66
2021/09/13 00:34:13;;;;;;;24.70;10.37;;;;;;;12.43;100.00;-19490.22;5017920;28;20429;-66
2021/09/13 00:36:38;;;;;;;22.23;9.90;;;;;;;12.46;100.00;-19491.00;5016476;28;20037;-67
2021/09/13 00:39:03;;;;;;;23.47;10.33;;;;;;;12.51;100.00;-19492.31;5017576;28;20100;-67
2021/09/13 00:41:29;;;;;;;22.93;9.57;;;;;;;12.52;100.00;-19492.56;5017548;28;20369;-66
2021/09/13 00:43:54;;;;;;;19.97;9.33;;;;;;;12.52;100.00;-19492.72;5020770;28;20491;-66
2021/09/13 00:46:20;;;;;;;22.53;9.80;;;;;;;12.56;100.00;-19493.63;5020880;28;20029;-66
2021/09/13 00:48:45;;;;;;;19.47;8.53;;;;;;;12.54;100.00;-19493.09;5021917;28;20211;-66
2021/09/13 00:51:12;;;;;;;17.17;8.57;;;;;;;12.56;100.00;-19493.63;5021144;28;20128;-66
2021/09/13 00:53:37;;;;;;;20.27;8.67;;;;;;;12.49;100.00;-19491.91;5021335;28;20175;-66
2021/09/13 00:56:05;;;;;;;22.33;9.43;;;;;;;12.51;100.00;-19492.31;5020951;28;20485;-67
2021/09/13 00:58:30;;;;;;;19.23;8.83;;;;;;;12.44;100.00;-19490.47;5021427;28;20033;-66
2021/09/13 01:00:56;;;;;;;18.77;8.63;;;;;;;12.54;100.00;-19493.22;5020073;28;20037;-66
2021/09/13 01:03:22;;;;;;;18.57;8.93;;;;;;;12.55;100.00;-19493.38;5020645;28;20475;-67
2021/09/13 01:05:49;;;;;;;20.73;9.60;;;;;;;12.51;100.00;-19492.31;5019113;28;20121;-67
2021/09/13 01:08:14;;;;;;;20.27;8.83;;;;;;;12.48;100.00;-19491.53;5018939;28;20277;-67
2021/09/13 01:10:40;;;;;;;22.90;9.67;;;;;;;12.44;100.00;-19490.47;5021625;28;20262;-67
2021/09/13 01:13:06;;;;;;;22.87;9.20;;;;;;;12.47;100.00;-19491.25;5021143;28;20291;-66
2021/09/13 01:15:40;;;;;;;20.43;9.90;;;;;;;12.42;100.00;-19489.94;5020872;28;20494;-67
2021/09/13 01:18:06;;;;;;;23.20;9.30;;;;;;;12.31;100.00;-19487.31;5020694;28;20056;-67
2021/09/13 01:20:33;;;;;;;19.70;9.30;;;;;;;12.31;100.00;-19487.31;5021113;28;20068;-66
2021/09/13 01:23:06;;;;;;;20.20;9.60;;;;;;;12.30;100.00;-19487.06;5021092;28;20487;-66
2021/09/13 01:25:34;;;;;;;22.50;9.07;;;;;;;12.39;100.00;-19489.16;5017839;28;20034;-67
2021/09/13 01:28:00;;;;;;;22.63;9.07;;;;;;;12.40;100.00;-19489.44;5020046;28;20037;-67
2021/09/13 01:30:25;;;;;;;19.97;9.33;;;;;;;12.37;100.00;-19488.63;5020680;28;20045;-67
2021/09/13 01:32:51;;;;;;;21.10;9.27;;;;;;;12.43;100.00;-19490.22;5020864;28;20029;-66
2021/09/13 01:35:16;;;;;;;19.47;8.63;;;;;;;12.39;100.00;-19489.16;5016646;28;20021;-67
2021/09/13 01:37:42;;;;;;;23.00;8.97;;;;;;;12.40;100.00;-19489.44;5020319;28;20103;-67
2021/09/13 01:40:08;;;;;;;24.60;8.83;;;;;;;12.37;100.00;-19488.63;5020299;28;20079;-66
2021/09/13 01:42:34;;;;;;;21.13;8.57;;;;;;;12.27;100.00;-19486.16;5020853;28;20036;-67
2021/09/13 01:44:59;;;;;;;18.07;8.73;;;;;;;12.18;100.00;-19483.91;5020955;28;20459;-66
2021/09/13 01:47:25;;;;;;;18.37;8.83;;;;;;;12.16;100.00;-19483.38;5020003;28;20262;-67
2021/09/13 01:49:51;;;;;;;24.17;9.13;;;;;;;12.17;100.00;-19483.66;5020461;28;20063;-66
2021/09/13 01:52:16;;;;;;;20.20;8.93;;;;;;;12.15;100.00;-19483.13;5020185;28;20029;-66
2021/09/13 01:54:42;;;;;;;23.70;10.03;;;;;;;12.12;100.00;-19482.34;5019769;28;20514;-66
2021/09/13 01:57:07;;;;;;;21.47;8.93;;;;;;;12.15;100.00;-19483.13;5020182;28;20606;-66
2021/09/13 01:59:33;;;;;;;25.80;9.40;;;;;;;12.12;100.00;-19482.34;5019731;28;20159;-66
2021/09/13 02:01:58;;;;;;;27.43;9.63;;;;;;;12.03;100.00;-19479.97;5019439;28;20029;-66
2021/09/13 02:04:24;;;;;;;21.67;9.50;;;;;;;12.01;100.00;-19479.44;5020218;28;20434;-67
2021/09/13 02:06:49;;;;;;;26.13;9.10;;;;;;;11.94;100.00;-19477.59;5020305;28;20108;-66
2021/09/13 02:09:16;;;;;;;21.63;8.33;;;;;;;11.95;100.00;-19477.88;5019614;28;20506;-66
2021/09/13 02:11:41;;;;;;;30.60;9.27;;;;;;;11.95;100.00;-19477.88;5019730;28;20059;-66
2021/09/13 02:14:07;;;;;;;27.93;8.73;;;;;;;11.88;100.00;-19476.03;5020514;28;20310;-66
2021/09/13 02:16:33;;;;;;;25.17;8.37;;;;;;;11.95;100.00;-19477.88;5019523;28;20029;-66
2021/09/13 02:18:58;;;;;;;27.23;9.00;;;;;;;12.00;100.00;-19479.19;5020373;28;20021;-66
2021/09/13 02:21:23;;;;;;;28.97;8.70;;;;;;;12.10;100.00;-19481.81;5019754;28;20302;-66
2021/09/13 02:23:49;;;;;;;23.37;8.33;;;;;;;12.21;100.00;-19484.69;5019826;28;20044;-66
2021/09/13 02:26:14;;;;;;;25.83;8.70;;;;;;;12.31;100.00;-19487.31;5019229;28;20068;-66
2021/09/13 02:28:40;;;;;;;28.63;7.93;;;;;;;12.43;100.00;-19490.22;5019587;28;20017;-66
2021/09/13 02:31:06;;;;;;;18.83;7.77;;;;;;;12.48;100.00;-19491.53;5019336;28;20026;-67
2021/09/13 02:33:31;;;;;;;20.60;7.63;;;;;;;12.55;100.00;-19493.38;5019714;28;20193;-66
2021/09/13 02:35:57;;;;;;;19.20;6.70;;;;;;;12.61;100.00;-19494.94;5019218;28;20362;-66
2021/09/13 02:38:23;;;;;;;22.87;7.43;;;;;;;12.68;100.00;-19496.78;5016758;28;20104;-66
2021/09/13 02:40:48;;;;;;;24.27;7.70;;;;;;;12.69;100.00;-19497.03;5019082;28;20052;-66
2021/09/13 02:43:14;;;;;;;23.43;6.83;;;;;;;12.69;100.00;-19497.03;5019235;28;20060;-67
2021/09/13 02:45:39;;;;;;;19.73;7.37;;;;;;;12.75;100.00;-19498.47;5019168;28;20097;-66
2021/09/13 02:48:05;;;;;;;23.97;7.67;;;;;;;12.78;100.00;-19499.28;5020416;28;20017;-67
2021/09/13 02:50:31;;;;;;;31.93;7.37;;;;;;;12.69;100.00;-19496.91;5019357;28;20056;-67
2021/09/13 02:52:58;;;;;;;29.10;7.40;;;;;;;12.70;100.00;-19497.31;5015053;28;21790;-66
2021/09/13 02:55:24;;;;;;;24.97;7.73;;;;;;;12.74;100.00;-19498.34;5019740;28;20029;-67
2021/09/13 02:57:49;;;;;;;22.93;7.17;;;;;;;12.74;100.00;-19498.34;5020465;28;20070;-66
2021/09/13 03:00:19;;;;;;;27.03;7.67;;;;;;;12.82;100.00;-19500.31;5019098;28;20226;-67
2021/09/13 03:02:48;;;;;;;28.43;8.50;;;;;;;12.90;100.00;-19502.56;5020189;28;20460;-67
2021/09/13 03:05:17;;;;;;;23.90;7.20;;;;;;;12.80;100.00;-19499.94;5019978;28;20638;-67
2021/09/13 03:07:42;;;;;;;26.80;8.23;;;;;;;12.89;100.00;-19502.28;5020034;28;20033;-67
2021/09/13 03:10:10;;;;;;;19.20;7.10;;;;;;;12.78;100.00;-19499.28;5025904;28;20208;-67
2021/09/13 03:12:36;;;;;;;25.17;6.80;;;;;;;12.86;100.00;-19501.38;5023496;28;20497;-67
2021/09/13 03:15:06;;;;;;;24.23;7.80;;;;;;;12.90;100.00;-19502.56;5020123;28;20041;-67
2021/09/13 03:17:31;;;;;;;25.37;8.13;;;;;;;12.94;100.00;-19503.47;5019527;28;20033;-67
2021/09/13 03:19:57;;;;;;;28.73;8.13;;;;;;;12.98;100.00;-19504.53;5019652;28;20100;-67
2021/09/13 03:22:23;;;;;;;20.10;7.80;;;;;;;13.00;100.00;-19504.91;5020075;28;20037;-67
2021/09/13 03:24:48;;;;;;;20.90;8.00;;;;;;;12.90;100.00;-19502.56;5019869;28;20403;-67
2021/09/13 03:27:14;;;;;;;24.67;7.47;;;;;;;12.95;100.00;-19503.59;5019919;28;20490;-67
2021/09/13 03:29:40;;;;;;;23.20;8.13;;;;;;;12.91;100.00;-19502.81;5019851;28;20044;-68
2021/09/13 03:32:06;;;;;;;22.90;8.13;;;;;;;12.90;100.00;-19502.41;5019621;28;20054;-68
2021/09/13 03:34:31;;;;;;;24.23;8.07;;;;;;;13.01;100.00;-19505.19;5019928;28;20108;-68
2021/09/13 03:36:59;;;;;;;24.47;8.30;;;;;;;12.90;100.00;-19502.56;5019735;28;20112;-68
2021/09/13 03:39:25;;;;;;;23.53;8.30;;;;;;;13.02;100.00;-19505.44;5019642;28;20041;-68
2021/09/13 03:41:51;;;;;;;27.07;9.30;;;;;;;13.02;100.00;-19505.44;5018697;28;20061;-68
2021/09/13 03:44:17;;;;;;;25.70;9.47;;;;;;;13.03;100.00;-19505.69;5019790;28;20506;-68
2021/09/13 03:46:42;;;;;;;28.23;8.97;;;;;;;13.02;100.00;-19505.56;5019593;28;20036;-67
2021/09/13 03:49:08;;;;;;;25.37;8.73;;;;;;;13.05;100.00;-19506.22;5019823;28;20045;-68
2021/09/13 03:51:34;;;;;;;26.20;8.70;;;;;;;13.03;100.00;-19505.84;5019235;28;20463;-68
2021/09/13 03:54:01;;;;;;;22.10;7.90;;;;;;;13.06;100.00;-19506.63;5019549;28;20033;-68
2021/09/13 03:56:27;;;;;;;24.20;8.33;;;;;;;13.09;100.00;-19507.28;5019867;28;20352;-67
2021/09/13 03:58:52;;;;;;;27.23;8.47;;;;;;;13.03;100.00;-19505.69;5019279;28;20036;-67
2021/09/13 04:01:18;;;;;;;27.47;9.03;;;;;;;13.03;100.00;-19505.69;5019265;28;20036;-68
2021/09/13 04:03:46;;;;;;;26.90;9.07;;;;;;;13.06;100.00;-19506.50;5019168;28;20143;-68
2021/09/13 04:06:23;;;;;;;30.07;8.20;;;;;;;13.04;100.00;-19505.97;5019705;28;20530;-68
2021/09/13 04:11:54;;;;;;;27.00;9.07;;;;;;;13.10;100.00;-19507.53;4957352;28;20053;-68
2021/09/13 04:14:20;;;;;;;25.57;8.23;;;;;;;13.11;100.00;-19507.81;4950876;28;20057;-68
2021/09/13 04:16:46;;;;;;;27.77;8.37;;;;;;;13.06;100.00;-19506.50;4958366;28;20688;-68
2021/09/13 04:19:11;;;;;;;32.17;8.80;;;;;;;13.01;100.00;-19505.19;4961555;28;20031;-68
2021/09/13 04:21:37;;;;;;;31.80;8.93;;;;;;;13.07;100.00;-19506.75;4961283;28;20184;-68
2021/09/13 04:24:03;;;;;;;26.23;8.30;;;;;;;13.02;100.00;-19505.44;4961236;28;20038;-68
2021/09/13 04:26:29;;;;;;;31.40;8.93;;;;;;;13.03;100.00;-19505.69;4960865;28;20514;-68
2021/09/13 04:28:54;;;;;;;34.30;8.90;;;;;;;13.02;100.00;-19505.56;4961312;28;20034;-68
2021/09/13 04:31:20;;;;;;;35.10;8.70;;;;;;;13.04;100.00;-19505.97;4960968;28;20510;-68
2021/09/13 04:33:46;;;;;;;33.17;8.67;;;;;;;13.04;100.00;-19506.09;4961004;28;20027;-68
2021/09/13 04:36:12;;;;;;;30.03;8.93;;;;;;;13.06;100.00;-19506.50;4961399;28;20273;-68
2021/09/13 04:38:37;;;;;;;35.40;9.20;;;;;;;13.14;100.00;-19508.72;4963730;28;20065;-68
2021/09/13 04:41:03;;;;;;;30.13;8.37;;;;;;;13.15;100.00;-19508.84;4961292;28;20042;-68
2021/09/13 04:43:28;;;;;;;35.83;9.90;;;;;;;13.17;100.00;-19509.38;4960700;28;20038;-67
2021/09/13 04:45:54;;;;;;;30.07;9.33;;;;;;;13.21;100.00;-19510.44;4961077;28;20038;-68
2021/09/13 04:48:19;;;;;;;35.50;11.00;;;;;;;13.24;100.00;-19511.22;4975077;28;20387;-68
2021/09/13 04:50:45;;;;;;;31.73;8.70;;;;;;;13.23;100.00;-19510.94;5020539;28;20060;-68
2021/09/13 04:53:10;;;;;;;34.63;9.97;;;;;;;13.22;100.00;-19510.69;5021667;28;20029;-68
2021/09/13 04:55:36;;;;;;;35.23;9.40;;;;;;;13.35;100.00;-19513.97;5022219;28;20053;-68
2021/09/13 04:58:02;;;;;;;37.53;9.93;;;;;;;13.38;100.00;-19514.88;5022819;28;20462;-68
2021/09/13 05:00:28;;;;;;;32.63;9.87;;;;;;;13.36;100.00;-19514.22;5022231;28;20041;-68
2021/09/13 05:02:53;;;;;;;31.53;8.77;;;;;;;13.39;100.00;-19515.16;5022461;28;20418;-68
2021/09/13 05:05:19;;;;;;;26.53;8.77;;;;;;;13.35;100.00;-19514.09;5022037;28;20116;-68
2021/09/13 05:07:44;;;;;;;32.60;14.43;;;;;;;13.44;100.00;-19516.31;5022051;28;20033;-67
2021/09/13 05:10:10;;;;;;;32.47;10.60;;;;;;;13.45;100.00;-19516.59;5022230;28;20184;-68
2021/09/13 05:12:36;;;;;;;29.80;9.43;;;;;;;13.43;100.00;-19516.19;5022483;28;20170;-67
2021/09/13 05:15:02;;;;;;;33.57;9.43;;;;;;;13.38;100.00;-19514.75;5021921;28;20395;-68
2021/09/13 05:17:28;;;;;;;29.60;9.03;;;;;;;13.41;100.00;-19515.53;5022443;28;20039;-68
2021/09/13 05:19:54;;;;;;;33.43;9.17;;;;;;;13.46;100.00;-19517.00;5022065;28;20433;-68
2021/09/13 05:22:19;;;;;;;33.10;9.47;;;;;;;13.45;100.00;-19516.72;5022213;28;20033;-68
2021/09/13 05:24:45;;;;;;;32.17;9.53;;;;;;;13.52;100.00;-19518.28;5021896;28;20048;-68
2021/09/13 05:27:10;;;;;;;29.87;9.80;;;;;;;13.60;100.00;-19520.53;5022166;28;20104;-68
2021/09/13 05:29:36;;;;;;;26.63;9.33;;;;;;;13.64;100.00;-19521.56;5021567;28;20036;-68
2021/09/13 05:32:03;;;;;;;24.63;9.40;;;;;;;13.71;100.00;-19523.41;5021590;28;20258;-69
2021/09/13 05:36:56;;;;;;;24.93;8.70;;;;;;;13.81;100.00;-19525.78;5011443;28;20474;-69
2021/09/13 05:39:22;;;;;;;27.77;9.43;;;;;;;13.79;100.00;-19525.38;5021666;28;20157;-68
2021/09/13 05:41:48;;;;;;;23.33;8.90;;;;;;;13.81;100.00;-19525.91;5021774;28;20064;-69
2021/09/13 05:44:13;;;;;;;24.87;8.60;;;;;;;13.77;100.00;-19524.84;5021460;28;20187;-68
2021/09/13 05:46:39;;;;;;;26.17;8.37;;;;;;;13.77;100.00;-19524.84;5021388;28;20041;-68
2021/09/13 05:49:09;;;;;;;26.73;9.07;;;;;;;13.81;100.00;-19525.78;5021502;28;20273;-68
2021/09/13 05:51:39;;;;;;;25.90;9.33;;;;;;;13.86;100.00;-19527.22;5021248;28;20033;-68
2021/09/13 05:54:05;;;;;;;21.87;8.47;;;;;;;13.87;100.00;-19527.34;5021040;28;20057;-68
2021/09/13 05:56:31;;;;;;;22.13;8.63;;;;;;;13.93;100.00;-19529.06;5019990;28;20320;-68
2021/09/13 05:58:56;;;;;;;27.33;9.37;;;;;;;14.01;100.00;-19531.00;5019700;28;20033;-68
2021/09/13 06:01:21;;;;;;;23.87;9.07;;;;;;;14.04;100.00;-19531.78;5017175;28;20041;-68
2021/09/13 06:03:47;;;;;;;26.90;9.33;;;;;;;14.16;100.00;-19534.81;5020755;28;20124;-68
2021/09/13 06:06:13;;;;;;;24.93;8.93;;;;;;;14.19;100.00;-19535.72;5022738;28;20276;-68
2021/09/13 06:08:39;;;;;;;24.23;9.30;;;;;;;14.10;100.00;-19533.25;5021190;28;20025;-68
2021/09/13 06:11:05;;;;;;;27.50;9.77;;;;;;;14.25;100.00;-19537.31;5021152;28;20025;-68
2021/09/13 06:13:30;;;;;;;22.57;8.60;;;;;;;14.14;100.00;-19534.41;5020366;28;20353;-68
2021/09/13 06:15:56;;;;;;;20.30;8.17;;;;;;;14.07;100.00;-19532.72;5020087;28;20029;-68
2021/09/13 06:18:21;;;;;;;24.17;8.80;;;;;;;14.19;100.00;-19535.59;5020965;28;20103;-68
2021/09/13 06:20:47;;;;;;;22.50;8.77;;;;;;;14.33;100.00;-19539.28;5020849;28;20021;-68
2021/09/13 06:23:12;;;;;;;17.60;7.33;;;;;;;14.20;100.00;-19536.00;5020305;28;20101;-68
2021/09/13 06:25:38;;;;;;;17.93;7.57;;;;;;;14.32;100.00;-19539.00;5019795;28;20063;-68
2021/09/13 06:28:04;;;;;;;21.77;8.30;;;;;;;14.37;100.00;-19540.31;5019525;28;20104;-68
2021/09/13 06:30:29;;;;;;;18.67;7.80;;;;;;;14.40;100.00;-19540.97;5020053;28;20159;-68
2021/09/13 06:32:55;;;;;;;25.60;8.80;;;;;;;14.35;100.00;-19539.78;5020559;28;20114;-68
2021/09/13 06:35:20;;;;;;;22.53;9.17;;;;;;;14.28;100.00;-19537.97;5020836;28;20267;-68
2021/09/13 06:37:46;;;;;;;26.73;9.23;;;;;;;14.34;100.00;-19539.53;5020491;28;20033;-68
2021/09/13 06:40:11;;;;;;;27.13;8.47;;;;;;;14.40;100.00;-19541.09;5013008;28;20033;-68
2021/09/13 06:42:37;;;;;;;21.77;8.50;;;;;;;14.47;100.00;-19542.94;5019454;28;20029;-68
2021/09/13 06:45:10;;;;;;;21.13;9.03;;;;;;;14.62;100.00;-19546.88;5020414;28;20130;-68
2021/09/13 06:47:45;;;;;;;24.70;9.63;;;;;;;14.81;100.00;-19551.59;5020067;28;20032;-68
2021/09/13 06:50:26;;;;;;;20.77;8.47;;;;;;;14.67;100.00;-19547.91;5020672;28;20033;-68
2021/09/13 06:52:54;;;;;;;23.00;8.90;;;;;;;14.77;100.00;-19550.53;5020545;28;20087;-68
2021/09/13 06:55:19;;;;;;;18.63;8.57;;;;;;;14.75;100.00;-19550.00;5020444;28;20237;-68
2021/09/13 06:57:45;;;;;;;22.97;8.87;;;;;;;14.92;100.00;-19554.47;5006989;28;20037;-68
2021/09/13 07:00:15;;;;;;;20.97;8.87;;;;;;;15.00;100.00;-19556.56;5020412;28;20131;-68
2021/09/13 07:02:45;;;;;;;17.37;8.00;;;;;;;15.05;100.00;-19557.88;5019543;28;20041;-68
2021/09/13 07:05:15;;;;;;;18.40;7.97;;;;;;;15.08;100.00;-19558.66;5020070;28;20025;-68
2021/09/13 07:07:41;;;;;;;17.90;8.10;;;;;;;14.95;100.00;-19555.25;5019928;28;20040;-68
2021/09/13 07:10:09;;;;;;;19.30;8.30;;;;;;;14.92;100.00;-19554.47;5019927;28;20272;-68
2021/09/13 07:12:36;;;;;;;17.93;8.90;;;;;;;15.16;100.00;-19560.63;5020451;28;20028;-68
2021/09/13 07:15:02;;;;;;;24.97;8.60;;;;;;;15.36;100.00;-19565.72;5019888;28;20029;-68
2021/09/13 07:17:28;;;;;;;18.97;8.40;;;;;;;15.36;100.00;-19565.72;5019934;28;20483;-68
2021/09/13 07:19:53;;;;;;;18.87;8.70;;;;;;;15.33;100.00;-19564.94;5020202;28;20040;-68
2021/09/13 07:22:19;;;;;;;19.57;8.33;;;;;;;15.32;100.00;-19564.66;5019794;28;20184;-68
2021/09/13 07:24:45;;;;;;;18.80;8.70;;;;;;;15.60;100.00;-19571.88;5019712;28;20037;-68
2021/09/13 07:27:11;;;;;;;21.73;8.80;;;;;;;15.77;100.00;-19576.44;5019640;28;20068;-68
2021/09/13 07:29:38;;;;;;;19.50;8.40;;;;;;;15.61;100.00;-19572.25;5019598;28;20544;-68
2021/09/13 07:32:04;;;;;;;22.07;10.00;;;;;;;15.61;100.00;-19572.13;5020032;28;20026;-68
2021/09/13 07:34:30;;;;;;;18.93;9.40;;;;;;;15.89;100.00;-19579.31;5019545;28;20324;-68
2021/09/13 07:36:56;;;;;;;18.43;8.70;;;;;;;16.18;100.00;-19586.78;5019774;28;20033;-68
2021/09/13 07:39:27;;;;;;;19.07;8.53;;;;;;;15.86;100.00;-19578.53;5019399;28;20502;-69
2021/09/13 07:41:52;;;;;;;22.23;8.53;;;;;;;16.04;100.00;-19583.25;5013098;28;20399;-69
2021/09/13 07:44:18;;;;;;;18.07;8.63;;;;;;;16.15;100.00;-19586.00;5018251;28;20546;-69
2021/09/13 07:46:44;;;;;;;17.73;8.70;;;;;;;16.57;100.00;-19596.97;5019446;28;20163;-69
2021/09/13 07:49:09;;;;;;;17.87;8.00;;;;;;;16.32;100.00;-19590.56;5019067;28;20025;-69
2021/09/13 07:51:36;;;;;;;14.03;7.40;;;;;;;16.73;100.00;-19601.03;5018665;28;20055;-69
2021/09/13 07:54:01;;;;;;;14.57;7.73;;;;;;;17.09;100.00;-19610.16;5019629;28;20044;-69
2021/09/13 07:56:27;;;;;;;17.70;8.37;;;;;;;17.47;100.00;-19620.06;5019404;28;20418;-69
2021/09/13 07:58:54;;;;;;;16.20;7.90;;;;;;;17.32;100.00;-19616.16;5018720;28;20187;-69
2021/09/13 08:01:19;;;;;;;15.30;7.07;;;;;;;16.91;100.00;-19605.72;5019097;28;20034;-69
2021/09/13 08:03:45;;;;;;;15.50;6.83;;;;;;;16.64;100.00;-19598.66;5019033;28;20053;-69
2021/09/13 08:06:10;;;;;;;18.45;6.93;;;;;;;17.22;100.00;-19613.56;5019043;28;20202;-69
2021/09/13 08:08:36;;;;;;;13.68;6.38;;;;;;;17.76;100.00;-19627.38;5019456;28;20025;-69
2021/09/13 08:11:02;;;;;;;13.80;6.40;;;;;;;17.59;100.00;-19623.09;5018942;28;20207;-70
2021/09/13 08:13:28;;;;;;;13.18;6.15;;;;;;;17.51;100.00;-19621.00;5019145;28;20112;-70
2021/09/13 08:15:54;;;;;;;13.27;5.93;;;;;;;18.37;100.00;-19643.03;5019412;28;20112;-70
2021/09/13 08:18:19;;;;;;;13.60;6.20;;;;;;;18.84;100.00;-19655.16;5019140;28;20485;-71
2021/09/13 08:20:45;;;;;;;12.60;5.85;;;;;;;19.51;100.00;-19672.22;5019014;28;20095;-72
2021/09/13 08:23:10;;;;;;;12.63;4.88;;;;;;;18.82;100.00;-19654.50;5019022;28;20498;-71
2021/09/13 08:25:36;;;;;;;10.20;4.93;;;;;;;18.83;100.00;-19654.75;5019157;28;20048;-70
2021/09/13 08:28:01;;;;;;;11.48;5.68;;;;;;;18.87;100.00;-19655.94;5019181;28;20159;-70
2021/09/13 08:30:27;;;;;;;13.13;5.75;;;;;;;18.89;100.00;-19656.47;5018756;28;20103;-70
2021/09/13 08:32:53;;;;;;;10.73;6.20;;;;;;;17.79;100.00;-19628.16;5018832;28;20082;-69
2021/09/13 08:35:19;;;;;;;11.60;6.07;;;;;;;18.30;100.00;-19641.22;5018213;28;20120;-69
2021/09/13 08:37:45;;;;;;;12.00;5.72;;;;;;;18.98;100.00;-19658.81;5018675;28;20584;-70
2021/09/13 08:40:11;;;;;;;14.25;5.80;;;;;;;19.37;100.00;-19668.56;5018776;28;20033;-69
2021/09/13 08:42:58;;;;;;;12.23;5.43;;;;;;;20.19;100.00;-19689.78;5018502;28;20392;-70
2021/09/13 08:46:08;;;;;;;10.35;5.05;;;;;;;20.11;100.00;-19687.56;5016907;28;20571;-71
2021/09/13 08:48:24;;;;;;;10.60;5.43;;;;;;;20.89;100.00;-19707.44;4995885;28;20115;-71
2021/09/13 08:51:05;;;;;;;9.75;5.53;;;;;;;21.07;100.00;-19712.13;5018129;28;20473;-70
2021/09/13 08:53:34;;;;;;;12.80;5.13;;;;;;;21.26;100.00;-19716.94;5017997;28;20113;-69
2021/09/13 08:56:02;;;;;;;12.27;5.65;;;;;;;21.16;100.00;-19714.47;5022671;28;20162;-69
2021/09/13 08:58:32;;;;;;;13.57;5.93;;;;;;;20.55;100.00;-19698.75;5018437;28;20040;-70
2021/09/13 09:00:58;;;;;;;15.18;6.13;;;;;;;20.41;100.00;-19695.38;5024185;28;20255;-69
2021/09/13 09:03:24;;;;;;;14.90;5.85;;;;;;;20.19;100.00;-19689.78;5017920;28;20140;-69
2021/09/13 09:05:50;;;;;;;16.30;6.53;;;;;;;19.55;100.00;-19673.38;5022133;28;20092;-69
2021/09/13 09:08:29;;;;;;;16.00;6.28;;;;;;;19.45;100.00;-19670.66;5022081;28;20069;-69
2021/09/13 09:10:57;;;;;;;14.55;6.40;;;;;;;19.21;100.00;-19664.66;5014244;28;20029;-69
2021/09/13 09:13:26;;;;;;;13.95;6.43;;;;;;;18.50;100.00;-19646.41;5021247;28;20033;-69
2021/09/13 09:15:57;;;;;;;13.23;6.78;;;;;;;18.09;100.00;-19636.00;5021807;28;20391;-69
2021/09/13 09:18:24;;;;;;;15.55;6.63;;;;;;;18.13;100.00;-19636.91;5021995;28;20471;-69
2021/09/13 09:20:50;;;;;;;14.95;6.70;;;;;;;18.18;100.00;-19638.09;5021882;28;20029;-69
2021/09/13 09:23:15;;;;;;;14.80;6.63;;;;;;;18.62;100.00;-19649.41;5021661;28;20025;-69
2021/09/13 09:25:41;;;;;;;18.15;7.10;;;;;;;18.95;100.00;-19657.88;5021945;28;20052;-69
2021/09/13 09:28:11;;;;;;;13.23;6.38;;;;;;;19.04;100.00;-19660.22;5021670;28;20548;-69
2021/09/13 09:30:42;;;;;;;14.27;6.72;;;;;;;18.98;100.00;-19658.66;5021191;28;20247;-69
2021/09/13 09:33:19;;;;;;;15.50;6.53;;;;;;;19.48;100.00;-19671.56;5021402;28;20044;-69
2021/09/13 09:35:49;;;;;;;16.98;6.82;;;;;;;19.90;100.00;-19682.38;5021657;28;20029;-70
2021/09/13 09:38:39;;;;;;;15.10;6.88;;;;;;;19.11;100.00;-19661.94;5021716;28;20025;-69
2021/09/13 09:41:16;;;;;;;13.45;6.80;;;;;;;19.36;100.00;-19668.31;5011278;28;20045;-69
2021/09/13 09:44:00;;;;;;;12.75;6.18;;;;;;;19.79;100.00;-19679.38;5021071;28;20032;-69
2021/09/13 09:46:40;;;;;;;13.45;6.53;;;;;;;20.04;100.00;-19685.88;5021284;28;20112;-69
2021/09/13 09:49:11;;;;;;;12.30;6.60;;;;;;;20.32;100.00;-19692.88;5021673;28;20489;-69
2021/09/13 09:51:39;;;;;;;10.57;6.03;;;;;;;20.47;100.00;-19696.94;5021128;28;20040;-70
2021/09/13 09:54:13;;;;;;;12.95;5.65;;;;;;;19.70;100.00;-19677.16;5017216;28;20059;-70
2021/09/13 09:56:39;;;;;;;12.98;6.05;;;;;;;19.87;100.00;-19681.59;5020976;28;20033;-70
2021/09/13 09:59:07;;;;;;;9.93;4.07;;;;;;;20.56;100.00;-19699.00;5021085;28;20065;-69
2021/09/13 10:01:40;;;;;;;10.88;4.90;;;;;;;20.15;100.00;-19688.72;5020612;28;20029;-69
2021/09/13 10:04:25;;;;;;;9.20;4.35;;;;;;;20.92;100.00;-19708.34;5018848;28;20049;-70
2021/09/13 10:06:59;;;;;;;10.18;5.00;;;;;;;21.54;100.00;-19724.19;5020183;28;20025;-70
2021/09/13 10:09:30;;;;;;;9.05;4.20;;;;;;;21.87;100.00;-19732.50;5020914;28;20044;-69
2021/09/13 10:11:58;;;;;;;10.65;4.47;;;;;;;20.80;100.00;-19705.25;5020921;28;20029;-70
2021/09/13 10:14:27;;;;;;;10.48;4.75;;;;;;;20.94;100.00;-19708.75;5020001;28;20033;-70
2021/09/13 10:16:53;;;;;;;10.70;5.47;;;;;;;21.28;100.00;-19717.59;5019298;28;20033;-70
2021/09/13 10:19:21;;;;;;;12.05;5.45;;;;;;;21.00;100.00;-19710.44;5020306;28;20464;-69
2021/09/13 10:21:47;;;;;;;9.90;4.60;;;;;;;20.50;100.00;-19697.44;5020687;28;20520;-69
2021/09/13 10:24:17;;;;;;;10.35;5.22;;;;;;;19.99;100.00;-19684.56;5020870;28;20025;-69
2021/09/13 10:26:52;;;;;;;11.50;5.45;;;;;;;20.54;100.00;-19698.50;5019930;28;20511;-69
2021/09/13 10:29:21;;;;;;;11.85;5.20;;;;;;;19.77;100.00;-19678.84;5020784;28;20028;-70
2021/09/13 10:32:16;;;;;;;12.27;5.22;;;;;;;20.54;100.00;-19698.50;5020660;28;20602;-69
2021/09/13 10:34:51;;;;;;;8.90;4.90;;;;;;;20.19;100.00;-19689.66;5019715;28;20029;-70
2021/09/13 10:37:21;;;;;;;8.50;5.00;;;;;;;20.22;100.00;-19690.28;5018497;28;20033;-69
2021/09/13 10:40:03;;;;;;;10.32;5.10;;;;;;;20.78;100.00;-19704.72;5018991;28;20040;-69
2021/09/13 10:42:39;;;;;;;9.18;4.75;;;;;;;20.72;100.00;-19703.28;5020523;28;20105;-69
2021/09/13 10:45:41;;;;;;;11.18;4.97;;;;;;;20.34;100.00;-19693.53;5019571;28;20028;-69
2021/09/13 10:48:20;;;;;;;9.55;4.72;;;;;;;19.81;100.00;-19680.03;4981169;28;20038;-70
2021/09/13 10:50:57;;;;;;;9.13;4.70;;;;;;;20.29;100.00;-19692.25;5020219;28;20034;-69
2021/09/13 10:53:32;;;;;;;10.55;4.82;;;;;;;20.36;100.00;-19694.06;5019826;28;20025;-69
2021/09/13 10:56:04;;;;;;;6.50;3.90;;;;;;;20.59;100.00;-19699.78;5026168;28;20025;-69
2021/09/13 10:58:54;;;;;;;9.73;3.92;;;;;;;20.79;100.00;-19704.97;5019585;28;20033;-69
2021/09/13 11:01:27;;;;;;;7.85;4.53;;;;;;;20.96;100.00;-19709.28;5016101;28;20061;-69
2021/09/13 11:04:13;;;;;;;7.70;4.20;;;;;;;20.78;100.00;-19704.72;5019749;28;20120;-69
2021/09/13 11:06:44;;;;;;;13.18;5.07;;;;;;;19.96;100.00;-19683.66;5019297;28;20194;-69
2021/09/13 11:09:14;;;;;;;10.57;4.78;;;;;;;19.81;100.00;-19680.03;5019102;28;20024;-69
2021/09/13 11:11:44;;;;;;;7.38;3.80;;;;;;;19.34;100.00;-19667.91;5020066;28;20095;-69
2021/09/13 11:14:20;;;;;;;6.22;2.50;;;;;;;18.85;100.00;-19655.41;5019784;28;20032;-69
2021/09/13 11:16:52;;;;;;;7.40;2.20;;;;;;;18.69;100.00;-19651.25;5019049;28;20416;-69